createdAt,value
2018-09-03T00:01:26.174Z,17.70
2018-09-03T00:03:54.005Z,17.70
2018-09-03T00:06:21.507Z,17.70
2018-09-03T00:08:49.017Z,17.70
2018-09-03T00:11:16.684Z,17.70
2018-09-03T00:13:44.243Z,17.70
2018-09-03T00:16:12.166Z,17.70
2018-09-03T00:18:39.788Z,17.70
2018-09-03T00:21:07.948Z,17.70
2018-09-03T00:23:35.897Z,17.70
2018-09-03T00:26:03.401Z,17.70
2018-09-03T00:28:30.847Z,17.70
2018-09-03T00:33:12.847Z,17.70
2018-09-03T00:35:46.060Z,17.70
2018-09-03T00:38:19.209Z,17.60
2018-09-03T00:40:52.304Z,17.60
2018-09-03T00:43:25.514Z,17.70
2018-09-03T00:45:58.701Z,17.60
2018-09-03T00:48:28.327Z,17.60
2018-09-03T00:50:55.776Z,17.70
2018-09-03T00:53:23.247Z,17.70
2018-09-03T00:55:50.764Z,17.70
2018-09-03T00:58:18.360Z,17.60
2018-09-03T01:00:45.854Z,17.80
2018-09-03T01:03:13.357Z,17.80
2018-09-03T01:05:48.774Z,17.80
2018-09-03T01:08:16.226Z,17.90
2018-09-03T01:10:43.671Z,17.80
2018-09-03T01:13:11.166Z,17.70
2018-09-03T01:15:38.643Z,17.70
2018-09-03T01:18:06.124Z,17.60
2018-09-03T01:20:33.655Z,17.60
2018-09-03T01:23:01.100Z,17.50
2018-09-03T01:25:28.560Z,17.60
2018-09-03T01:27:56.003Z,17.60
2018-09-03T01:30:23.475Z,17.50
2018-09-03T01:32:50.911Z,17.50
2018-09-03T01:35:18.406Z,17.50
2018-09-03T01:37:45.867Z,17.60
2018-09-03T01:40:13.336Z,17.50
2018-09-03T01:42:40.859Z,17.50
2018-09-03T01:45:08.359Z,17.60
2018-09-03T01:47:35.882Z,17.60
2018-09-03T01:50:03.509Z,17.60
2018-09-03T01:52:31.012Z,17.60
2018-09-03T01:54:58.523Z,17.50
2018-09-03T01:57:26.023Z,17.50
2018-09-03T01:59:53.492Z,17.50
2018-09-03T02:02:21.048Z,17.50
2018-09-03T02:04:48.647Z,17.40
2018-09-03T02:07:16.133Z,17.40
2018-09-03T02:09:43.617Z,17.60
2018-09-03T02:12:12.792Z,17.60
2018-09-03T02:14:41.062Z,17.60
2018-09-03T02:17:09.501Z,17.60
2018-09-03T02:19:37.076Z,17.50
2018-09-03T02:22:04.931Z,17.40
2018-09-03T02:24:32.403Z,17.50
2018-09-03T02:26:59.892Z,17.50
2018-09-03T02:29:27.380Z,17.50
2018-09-03T02:31:54.899Z,17.40
2018-09-03T02:34:24.464Z,17.50
2018-09-03T02:36:51.951Z,17.50
2018-09-03T02:39:19.451Z,17.50
2018-09-03T02:41:46.904Z,17.50
2018-09-03T02:44:16.907Z,17.50
2018-09-03T02:46:44.900Z,17.40
2018-09-03T02:49:12.941Z,17.40
2018-09-03T02:51:40.895Z,17.50
2018-09-03T02:54:08.879Z,17.40
2018-09-03T02:56:36.398Z,17.30
2018-09-03T02:59:04.059Z,17.40
2018-09-03T03:01:31.659Z,17.50
2018-09-03T03:03:59.180Z,17.40
2018-09-03T03:06:26.735Z,17.30
2018-09-03T03:08:54.213Z,17.30
2018-09-03T03:11:21.679Z,17.40
2018-09-03T03:13:49.164Z,17.40
2018-09-03T03:16:16.660Z,17.40
2018-09-03T03:18:44.104Z,17.30
2018-09-03T03:21:11.562Z,17.40
2018-09-03T03:23:39.072Z,17.40
2018-09-03T03:26:06.495Z,17.40
2018-09-03T03:28:34.033Z,17.50
2018-09-03T03:31:01.492Z,17.30
2018-09-03T03:33:28.989Z,17.40
2018-09-03T03:35:56.439Z,17.40
2018-09-03T03:38:23.895Z,17.40
2018-09-03T03:40:51.390Z,17.40
2018-09-03T03:43:18.829Z,17.30
2018-09-03T03:45:46.307Z,17.30
2018-09-03T03:48:13.860Z,17.40
2018-09-03T03:50:41.357Z,17.40
2018-09-03T03:53:08.808Z,17.40
2018-09-03T03:55:36.341Z,17.30
2018-09-03T03:58:03.814Z,17.40
2018-09-03T04:00:31.245Z,17.40
2018-09-03T04:02:58.686Z,17.40
2018-09-03T04:05:26.119Z,17.40
2018-09-03T04:07:53.564Z,17.30
2018-09-03T04:10:21.119Z,17.40
2018-09-03T04:12:57.132Z,17.40
2018-09-03T04:15:24.584Z,17.40
2018-09-03T04:17:52.183Z,17.40
2018-09-03T04:20:19.724Z,17.30
2018-09-03T04:22:50.963Z,17.40
2018-09-03T04:25:18.371Z,17.40
2018-09-03T04:27:45.801Z,17.40
2018-09-03T04:30:13.352Z,17.30
2018-09-03T04:32:40.804Z,17.40
2018-09-03T04:35:08.293Z,17.40
2018-09-03T04:37:35.759Z,17.30
2018-09-03T04:40:03.323Z,17.40
2018-09-03T04:42:31.360Z,17.40
2018-09-03T04:45:05.226Z,17.40
2018-09-03T04:47:32.743Z,17.50
2018-09-03T04:50:00.191Z,17.50
2018-09-03T04:52:27.666Z,17.50
2018-09-03T04:54:55.164Z,17.50
2018-09-03T04:57:22.583Z,17.50
2018-09-03T04:59:50.071Z,17.50
2018-09-03T05:02:17.518Z,17.50
2018-09-03T05:04:44.940Z,17.50
2018-09-03T05:07:12.496Z,17.60
2018-09-03T05:09:40.179Z,17.60
2018-09-03T05:12:07.904Z,17.60
2018-09-03T05:14:35.574Z,17.60
2018-09-03T05:17:03.059Z,17.60
2018-09-03T05:19:30.515Z,17.70
2018-09-03T05:21:58.048Z,17.70
2018-09-03T05:24:25.648Z,17.70
2018-09-03T05:26:53.229Z,17.50
2018-09-03T05:29:20.826Z,17.40
2018-09-03T05:31:48.304Z,17.50
2018-09-03T05:34:15.783Z,17.50
2018-09-03T05:36:43.233Z,17.60
2018-09-03T05:39:11.952Z,17.60
2018-09-03T05:41:39.582Z,17.60
2018-09-03T05:44:07.553Z,17.60
2018-09-03T05:46:35.203Z,17.70
2018-09-03T05:49:02.658Z,17.70
2018-09-03T05:51:30.099Z,17.70
2018-09-03T05:53:57.607Z,17.70
2018-09-03T05:56:25.122Z,17.70
2018-09-03T05:58:52.624Z,17.70
2018-09-03T06:01:20.223Z,17.70
2018-09-03T06:03:47.774Z,17.70
2018-09-03T06:06:18.547Z,17.70
2018-09-03T06:08:46.100Z,17.80
2018-09-03T06:11:13.679Z,17.90
2018-09-03T06:13:41.090Z,17.80
2018-09-03T06:16:08.697Z,17.70
2018-09-03T06:18:36.223Z,17.80
2018-09-03T06:21:03.764Z,17.60
2018-09-03T06:23:31.222Z,17.70
2018-09-03T06:25:58.811Z,17.80
2018-09-03T06:28:26.267Z,17.80
2018-09-03T06:30:53.798Z,17.90
2018-09-03T06:33:21.262Z,17.90
2018-09-03T06:35:49.357Z,18.00
2018-09-03T06:38:17.169Z,17.90
2018-09-03T06:40:44.606Z,17.80
2018-09-03T06:43:12.080Z,17.90
2018-09-03T06:45:39.526Z,17.80
2018-09-03T06:48:07.172Z,18.00
2018-09-03T06:50:34.812Z,17.90
2018-09-03T06:53:02.688Z,17.90
2018-09-03T06:55:30.209Z,18.00
2018-09-03T06:57:57.671Z,17.90
2018-09-03T07:00:25.191Z,17.90
2018-09-03T07:02:52.736Z,18.00
2018-09-03T07:05:20.312Z,18.20
2018-09-03T07:07:48.016Z,18.10
2018-09-03T07:10:15.492Z,18.20
2018-09-03T07:12:43.012Z,18.20
2018-09-03T07:15:10.643Z,18.20
2018-09-03T07:17:38.728Z,18.20
2018-09-03T07:20:06.242Z,18.30
2018-09-03T07:22:33.962Z,18.30
2018-09-03T07:25:01.462Z,18.30
2018-09-03T07:27:28.954Z,18.30
2018-09-03T07:29:57.155Z,18.30
2018-09-03T07:32:24.916Z,18.20
2018-09-03T07:34:52.903Z,18.20
2018-09-03T07:37:20.565Z,18.20
2018-09-03T07:39:48.089Z,18.30
2018-09-03T07:42:17.387Z,18.30
2018-09-03T07:44:44.919Z,18.30
2018-09-03T07:47:13.554Z,18.20
2018-09-03T07:49:41.104Z,18.30
2018-09-03T07:52:08.650Z,18.20
2018-09-03T07:54:37.295Z,18.30
2018-09-03T07:57:05.191Z,18.40
2018-09-03T07:59:37.347Z,18.50
2018-09-03T08:02:05.200Z,18.50
2018-09-03T08:04:32.675Z,18.50
2018-09-03T08:07:00.358Z,18.60
2018-09-03T08:09:27.823Z,18.70
2018-09-03T08:11:58.922Z,18.90
2018-09-03T08:14:27.536Z,18.90
2018-09-03T08:16:55.025Z,19.00
2018-09-03T08:19:22.564Z,18.90
2018-09-03T08:21:50.096Z,18.90
2018-09-03T08:24:17.694Z,19.00
2018-09-03T08:26:49.635Z,18.80
2018-09-03T08:29:17.135Z,18.90
2018-09-03T08:31:44.667Z,19.00
2018-09-03T08:34:12.151Z,19.10
2018-09-03T08:36:39.793Z,19.20
2018-09-03T08:39:07.344Z,19.20
2018-09-03T08:41:35.192Z,19.20
2018-09-03T08:44:02.787Z,19.20
2018-09-03T08:46:33.494Z,19.20
2018-09-03T08:49:01.012Z,19.30
2018-09-03T08:51:28.784Z,19.40
2018-09-03T08:53:56.541Z,19.40
2018-09-03T08:56:24.315Z,19.40
2018-09-03T08:58:52.216Z,19.40
2018-09-03T09:01:20.174Z,19.50
2018-09-03T09:03:48.176Z,19.50
2018-09-03T09:06:16.236Z,19.60
2018-09-03T09:08:43.695Z,19.70
2018-09-03T09:11:11.629Z,19.70
2018-09-03T09:13:39.122Z,19.80
2018-09-03T09:16:06.911Z,19.80
2018-09-03T09:18:34.872Z,19.80
2018-09-03T09:21:02.420Z,20.10
2018-09-03T09:23:29.975Z,20.30
2018-09-03T09:25:57.832Z,20.40
2018-09-03T09:28:25.854Z,20.50
2018-09-03T09:30:53.850Z,20.60
2018-09-03T09:33:21.769Z,20.70
2018-09-03T09:35:49.772Z,21.00
2018-09-03T09:38:17.698Z,21.40
2018-09-03T09:40:45.207Z,21.90
2018-09-03T09:43:13.198Z,22.20
2018-09-03T09:45:41.180Z,22.30
2018-09-03T09:48:08.973Z,22.30
2018-09-03T09:50:36.443Z,22.40
2018-09-03T09:53:04.007Z,22.20
2018-09-03T09:55:32.339Z,22.20
2018-09-03T09:57:59.893Z,22.30
2018-09-03T10:00:33.660Z,22.50
2018-09-03T10:03:01.139Z,23.00
2018-09-03T10:05:28.607Z,23.60
2018-09-03T10:07:56.062Z,23.60
2018-09-03T10:10:23.538Z,23.30
2018-09-03T10:12:51.043Z,22.90
2018-09-03T10:15:18.656Z,22.70
2018-09-03T10:17:46.151Z,22.40
2018-09-03T10:20:13.657Z,22.50
2018-09-03T10:22:41.708Z,22.70
2018-09-03T10:25:09.278Z,23.40
2018-09-03T10:27:36.801Z,23.90
2018-09-03T10:30:04.440Z,24.60
2018-09-03T10:32:32.087Z,24.80
2018-09-03T10:34:59.559Z,24.80
2018-09-03T10:37:27.069Z,25.00
2018-09-03T10:39:54.918Z,25.00
2018-09-03T10:42:23.752Z,24.60
2018-09-03T10:44:51.287Z,24.50
2018-09-03T10:47:18.911Z,24.30
2018-09-03T10:49:46.692Z,24.00
2018-09-03T10:52:14.755Z,24.00
2018-09-03T10:54:42.249Z,23.80
2018-09-03T10:57:09.955Z,23.80
2018-09-03T10:59:38.381Z,23.80
2018-09-03T11:02:07.022Z,23.80
2018-09-03T11:04:35.079Z,23.60
2018-09-03T11:07:03.019Z,23.40
2018-09-03T11:09:31.089Z,23.40
2018-09-03T11:11:59.051Z,23.30
2018-09-03T11:14:27.012Z,23.20
2018-09-03T11:16:55.003Z,23.30
2018-09-03T11:19:25.248Z,23.30
2018-09-03T11:21:53.298Z,23.30
2018-09-03T11:24:21.277Z,23.20
2018-09-03T11:26:49.248Z,23.20
2018-09-03T11:29:17.412Z,23.20
2018-09-03T11:31:45.422Z,23.20
2018-09-03T11:34:13.407Z,23.10
2018-09-03T11:36:41.156Z,23.20
2018-09-03T11:39:10.636Z,23.50
2018-09-03T11:41:38.609Z,23.70
2018-09-03T11:44:06.161Z,24.10
2018-09-03T11:46:34.591Z,24.80
2018-09-03T11:49:02.062Z,24.90
2018-09-03T11:51:30.077Z,24.40
2018-09-03T11:53:58.239Z,23.80
2018-09-03T11:56:26.193Z,23.40
2018-09-03T11:58:54.068Z,23.20
2018-09-03T12:01:22.094Z,23.00
2018-09-03T12:03:50.069Z,22.80
2018-09-03T12:06:18.124Z,22.70
2018-09-03T12:08:46.149Z,22.60
2018-09-03T12:11:13.664Z,22.60
2018-09-03T12:13:41.134Z,22.60
2018-09-03T12:16:11.567Z,22.70
2018-09-03T12:18:40.387Z,22.90
2018-09-03T12:21:07.897Z,23.30
2018-09-03T12:23:35.441Z,24.10
2018-09-03T12:26:02.967Z,24.60
2018-09-03T12:28:30.903Z,25.00
2018-09-03T12:30:58.355Z,25.00
2018-09-03T12:33:26.093Z,25.10
2018-09-03T12:35:53.615Z,24.90
2018-09-03T12:38:21.723Z,24.70
2018-09-03T12:40:49.375Z,24.50
2018-09-03T12:43:17.944Z,24.20
2018-09-03T12:45:51.227Z,23.80
2018-09-03T12:48:18.848Z,23.50
2018-09-03T12:50:46.455Z,23.10
2018-09-03T12:53:13.963Z,22.70
2018-09-03T12:55:41.453Z,22.70
2018-09-03T12:58:08.936Z,22.60
2018-09-03T13:00:38.675Z,22.60
2018-09-03T13:03:04.467Z,22.50
2018-09-03T13:05:31.907Z,22.40
2018-09-03T13:07:59.376Z,22.50
2018-09-03T13:10:27.076Z,22.50
2018-09-03T13:12:54.581Z,22.60
2018-09-03T13:15:22.220Z,22.60
2018-09-03T13:17:49.721Z,22.70
2018-09-03T13:20:17.262Z,22.80
2018-09-03T13:22:44.803Z,22.90
2018-09-03T13:25:12.463Z,23.00
2018-09-03T13:27:39.974Z,23.10
2018-09-03T13:30:08.409Z,23.30
2018-09-03T13:32:35.896Z,23.60
2018-09-03T13:35:03.396Z,23.90
2018-09-03T13:37:30.824Z,24.20
2018-09-03T13:39:58.313Z,24.30
2018-09-03T13:42:26.110Z,24.30
2018-09-03T13:44:53.575Z,24.20
2018-09-03T13:47:21.462Z,24.30
2018-09-03T13:49:49.691Z,24.30
2018-09-03T13:52:17.580Z,24.50
2018-09-03T13:54:45.473Z,24.60
2018-09-03T13:57:12.976Z,24.70
2018-09-03T13:59:40.641Z,24.60
2018-09-03T14:02:08.252Z,24.50
2018-09-03T14:04:35.788Z,24.60
2018-09-03T14:07:04.024Z,24.60
2018-09-03T14:09:33.299Z,24.50
2018-09-03T14:12:01.802Z,24.40
2018-09-03T14:14:29.540Z,24.50
2018-09-03T14:16:58.468Z,24.40
2018-09-03T14:19:26.136Z,24.70
2018-09-03T14:21:54.193Z,24.70
2018-09-03T14:24:23.543Z,24.70
2018-09-03T14:26:52.043Z,24.80
2018-09-03T14:29:19.684Z,24.90
2018-09-03T14:31:47.477Z,25.00
2018-09-03T14:34:15.026Z,24.80
2018-09-03T14:36:42.605Z,24.70
2018-09-03T14:39:11.524Z,24.50
2018-09-03T14:41:39.143Z,24.30
2018-09-03T14:44:06.971Z,24.30
2018-09-03T14:46:34.454Z,24.20
2018-09-03T14:49:02.143Z,24.10
2018-09-03T14:51:30.557Z,24.00
2018-09-03T14:53:58.487Z,23.80
2018-09-03T14:56:26.397Z,23.70
2018-09-03T14:58:54.593Z,23.70
2018-09-03T15:01:23.889Z,23.60
2018-09-03T15:03:52.808Z,23.60
2018-09-03T15:06:21.696Z,23.70
2018-09-03T15:08:49.810Z,23.60
2018-09-03T15:11:18.027Z,23.70
2018-09-03T15:13:51.768Z,23.60
2018-09-03T15:16:22.596Z,23.60
2018-09-03T15:18:52.653Z,23.60
2018-09-03T15:21:23.036Z,23.60
2018-09-03T15:23:51.069Z,23.60
2018-09-03T15:26:19.881Z,23.50
2018-09-03T15:28:47.456Z,23.50
2018-09-03T15:31:15.197Z,23.40
2018-09-03T15:33:42.836Z,23.60
2018-09-03T15:36:11.732Z,23.50
2018-09-03T15:38:40.175Z,23.20
2018-09-03T15:41:08.730Z,23.20
2018-09-03T15:43:37.300Z,23.10
2018-09-03T15:46:08.701Z,23.20
2018-09-03T15:48:36.452Z,23.00
2018-09-03T15:51:04.196Z,23.00
2018-09-03T15:53:31.819Z,22.90
2018-09-03T15:56:01.134Z,22.90
2018-09-03T15:58:29.374Z,23.00
2018-09-03T16:00:58.558Z,22.90
2018-09-03T16:03:26.275Z,23.10
2018-09-03T16:05:53.861Z,23.00
2018-09-03T16:08:21.944Z,23.20
2018-09-03T16:10:49.875Z,23.10
2018-09-03T16:13:17.730Z,23.00
2018-09-03T16:15:45.288Z,23.00
2018-09-03T16:18:13.550Z,22.90
2018-09-03T16:20:41.227Z,22.60
2018-09-03T16:23:08.918Z,22.40
2018-09-03T16:25:36.560Z,22.30
2018-09-03T16:28:04.216Z,22.30
2018-09-03T16:30:32.831Z,22.20
2018-09-03T16:33:00.611Z,22.20
2018-09-03T16:35:28.188Z,22.20
2018-09-03T16:37:55.779Z,22.10
2018-09-03T16:40:23.278Z,22.00
2018-09-03T16:42:50.857Z,22.00
2018-09-03T16:45:19.442Z,21.90
2018-09-03T16:47:48.715Z,21.70
2018-09-03T16:50:16.299Z,21.70
2018-09-03T16:52:43.851Z,21.70
2018-09-03T16:55:12.193Z,21.70
2018-09-03T16:57:39.677Z,21.70
2018-09-03T17:00:08.992Z,21.70
2018-09-03T17:02:36.501Z,21.60
2018-09-03T17:05:04.101Z,21.50
2018-09-03T17:07:31.886Z,21.50
2018-09-03T17:10:00.272Z,21.50
2018-09-03T17:12:27.760Z,21.50
2018-09-03T17:14:55.248Z,21.40
2018-09-03T17:17:23.101Z,21.30
2018-09-03T17:19:50.655Z,21.40
2018-09-03T17:22:18.484Z,21.40
2018-09-03T17:24:47.204Z,21.40
2018-09-03T17:27:14.643Z,21.30
2018-09-03T17:29:42.596Z,21.30
2018-09-03T17:32:10.517Z,21.30
2018-09-03T17:34:38.021Z,21.30
2018-09-03T17:37:05.478Z,21.30
2018-09-03T17:39:33.008Z,21.20
2018-09-03T17:42:00.552Z,21.20
2018-09-03T17:44:28.184Z,21.20
2018-09-03T17:46:55.721Z,21.00
2018-09-03T17:49:24.269Z,21.00
2018-09-03T17:51:51.831Z,21.10
2018-09-03T17:54:19.289Z,20.90
2018-09-03T17:56:46.797Z,21.00
2018-09-03T17:59:14.333Z,20.80
2018-09-03T18:01:41.971Z,20.90
2018-09-03T18:04:10.015Z,20.90
2018-09-03T18:06:37.760Z,20.90
2018-09-03T18:09:06.037Z,20.90
2018-09-03T18:11:33.530Z,20.90
2018-09-03T18:14:01.005Z,20.80
2018-09-03T18:16:28.597Z,20.80
2018-09-03T18:18:56.637Z,20.80
2018-09-03T18:21:24.095Z,20.80
2018-09-03T18:23:51.604Z,20.80
2018-09-03T18:26:19.136Z,20.70
2018-09-03T18:28:46.656Z,20.70
2018-09-03T18:31:14.113Z,20.70
2018-09-03T18:33:42.331Z,20.80
2018-09-03T18:36:09.851Z,20.80
2018-09-03T18:38:37.969Z,20.70
2018-09-03T18:41:05.720Z,20.70
2018-09-03T18:43:33.214Z,20.70
2018-09-03T18:46:00.708Z,20.60
2018-09-03T18:48:29.188Z,20.60
2018-09-03T18:50:56.850Z,20.60
2018-09-03T18:53:25.188Z,20.60
2018-09-03T18:55:52.726Z,20.60
2018-09-03T18:58:20.437Z,20.60
2018-09-03T19:00:47.885Z,20.60
2018-09-03T19:03:15.481Z,20.50
2018-09-03T19:05:43.662Z,20.50
2018-09-03T19:08:11.799Z,20.40
2018-09-03T19:10:39.329Z,20.50
2018-09-03T19:13:06.829Z,20.50
2018-09-03T19:15:34.350Z,20.50
2018-09-03T19:18:02.633Z,20.40
2018-09-03T19:20:30.145Z,20.40
2018-09-03T19:22:57.653Z,20.40
2018-09-03T19:25:25.185Z,20.30
2018-09-03T19:27:52.657Z,20.40
2018-09-03T19:30:20.170Z,20.40
2018-09-03T19:32:47.777Z,20.40
2018-09-03T19:35:15.996Z,20.40
2018-09-03T19:37:43.822Z,20.30
2018-09-03T19:40:11.301Z,20.40
2018-09-03T19:42:39.856Z,20.40
2018-09-03T19:45:07.668Z,20.30
2018-09-03T19:47:36.116Z,20.40
2018-09-03T19:50:03.750Z,20.40
2018-09-03T19:52:31.200Z,20.30
2018-09-03T19:54:58.697Z,20.40
2018-09-03T19:57:26.335Z,20.40
2018-09-03T19:59:54.023Z,20.40
2018-09-03T20:02:21.556Z,20.40
2018-09-03T20:04:49.212Z,20.40
2018-09-03T20:07:17.755Z,20.20
2018-09-03T20:09:45.621Z,20.30
2018-09-03T20:12:13.146Z,20.30
2018-09-03T20:14:40.727Z,20.30
2018-09-03T20:17:08.240Z,20.30
2018-09-03T20:19:35.666Z,20.30
2018-09-03T20:22:03.301Z,20.30
2018-09-03T20:24:30.814Z,20.30
2018-09-03T20:26:58.531Z,20.20
2018-09-03T20:29:25.971Z,20.30
2018-09-03T20:31:53.592Z,20.30
2018-09-03T20:34:21.902Z,20.20
2018-09-03T20:36:49.411Z,20.10
2018-09-03T20:39:17.735Z,20.20
2018-09-03T20:41:45.264Z,20.10
2018-09-03T20:44:13.742Z,20.20
2018-09-03T20:46:51.045Z,20.20
2018-09-03T20:49:19.034Z,20.10
2018-09-03T20:51:50.157Z,20.10
2018-09-03T20:54:23.084Z,20.10
2018-09-03T20:56:56.660Z,20.20
2018-09-03T20:59:38.554Z,20.10
2018-09-03T21:04:42.800Z,20.10
2018-09-03T21:07:10.364Z,20.10
2018-09-03T21:09:38.534Z,20.00
2018-09-03T21:12:05.998Z,20.00
2018-09-03T21:14:33.558Z,20.00
2018-09-03T21:17:01.534Z,20.00
2018-09-03T21:19:28.975Z,19.90
2018-09-03T21:21:56.458Z,19.90
2018-09-03T21:24:23.881Z,20.00
2018-09-03T21:26:51.616Z,20.00
2018-09-03T21:29:19.090Z,19.80
2018-09-03T21:31:46.540Z,19.90
2018-09-03T21:34:14.015Z,19.90
2018-09-03T21:36:41.699Z,19.80
2018-09-03T21:39:09.443Z,19.90
2018-09-03T21:41:37.015Z,19.90
2018-09-03T21:44:04.628Z,19.80
2018-09-03T21:46:35.837Z,19.80
2018-09-03T21:49:03.990Z,19.90
2018-09-03T21:51:31.747Z,19.80
2018-09-03T21:54:12.293Z,19.90
2018-09-03T21:56:40.670Z,19.80
2018-09-03T21:59:09.602Z,19.80
2018-09-03T22:01:37.213Z,19.80
2018-09-03T22:04:05.209Z,19.80
2018-09-03T22:06:35.782Z,19.80
2018-09-03T22:09:04.740Z,19.80
2018-09-03T22:11:34.610Z,19.80
2018-09-03T22:14:02.189Z,19.80
2018-09-03T22:16:29.684Z,19.70
2018-09-03T22:18:57.223Z,19.70
2018-09-03T22:21:24.731Z,19.50
2018-09-03T22:23:52.195Z,19.50
2018-09-03T22:26:19.726Z,19.50
2018-09-03T22:28:47.235Z,19.50
2018-09-03T22:31:14.820Z,19.50
2018-09-03T22:33:42.302Z,19.50
2018-09-03T22:36:09.872Z,19.50
2018-09-03T22:38:37.392Z,19.40
2018-09-03T22:41:04.879Z,19.50
2018-09-03T22:43:32.439Z,19.40
2018-09-03T22:46:00.026Z,19.50
2018-09-03T22:48:27.625Z,19.50
2018-09-03T22:50:55.155Z,19.50
2018-09-03T22:53:22.666Z,19.50
2018-09-03T22:55:50.197Z,19.40
2018-09-03T22:58:17.762Z,19.50
2018-09-03T23:00:45.398Z,19.50
2018-09-03T23:03:12.984Z,19.40
2018-09-03T23:05:40.705Z,19.40
2018-09-03T23:08:08.227Z,19.50
2018-09-03T23:10:35.671Z,19.50
2018-09-03T23:13:03.184Z,19.50
2018-09-03T23:15:30.716Z,19.50
2018-09-03T23:17:58.255Z,19.50
2018-09-03T23:20:25.711Z,19.60
2018-09-03T23:22:53.292Z,19.50
2018-09-03T23:25:20.787Z,19.50
2018-09-03T23:27:48.392Z,19.50
2018-09-03T23:30:15.844Z,19.50
2018-09-03T23:32:43.388Z,19.50
2018-09-03T23:35:10.807Z,19.60
2018-09-03T23:37:38.289Z,19.60
2018-09-03T23:40:06.297Z,19.70
2018-09-03T23:42:33.832Z,19.60
2018-09-03T23:45:01.401Z,19.60
2018-09-03T23:47:28.855Z,19.60
2018-09-03T23:49:56.351Z,19.60
2018-09-03T23:52:23.945Z,19.60
2018-09-03T23:54:51.516Z,19.60
2018-09-03T23:57:18.953Z,19.40
2018-09-03T23:59:46.405Z,19.50
